createdAt,value
2023-01-10T00:00:26.822Z,95.55
2023-01-10T00:01:26.673Z,95.45
2023-01-10T00:02:26.732Z,95.34
2023-01-10T00:03:26.698Z,95.34
2023-01-10T00:04:26.750Z,95.34
2023-01-10T00:05:26.626Z,95.45
2023-01-10T00:06:26.613Z,95.24
2023-01-10T00:07:26.613Z,95.24
2023-01-10T00:08:26.589Z,95.03
2023-01-10T00:09:26.570Z,95.14
2023-01-10T00:10:26.587Z,95.14
2023-01-10T00:11:26.552Z,95.03
2023-01-10T00:12:26.551Z,95.14
2023-01-10T00:13:26.522Z,95.34
2023-01-10T00:14:26.517Z,95.03
2023-01-10T00:15:26.504Z,94.93
2023-01-10T00:16:26.505Z,94.82
2023-01-10T00:17:26.488Z,94.68
2023-01-10T00:18:26.459Z,94.57
2023-01-10T00:19:26.445Z,94.57
2023-01-10T00:20:26.438Z,94.72
2023-01-10T00:21:26.428Z,94.68
2023-01-10T00:22:26.428Z,94.72
2023-01-10T00:23:26.395Z,94.72
2023-01-10T00:24:26.394Z,94.93
2023-01-10T00:25:26.375Z,95.14
2023-01-10T00:26:26.388Z,95.45
2023-01-10T00:27:26.367Z,95.65
2023-01-10T00:28:26.339Z,95.55
2023-01-10T00:29:26.371Z,95.55
2023-01-10T00:30:26.309Z,95.86
2023-01-10T00:31:26.356Z,95.86
2023-01-10T00:32:26.307Z,95.96
2023-01-10T00:33:26.263Z,95.86
2023-01-10T00:34:26.253Z,95.96
2023-01-10T00:35:26.257Z,95.86
2023-01-10T00:36:26.237Z,95.96
2023-01-10T00:37:26.225Z,96.06
2023-01-10T00:38:26.205Z,96.17
2023-01-10T00:39:26.203Z,96.17
2023-01-10T00:40:26.177Z,96.17
2023-01-10T00:41:26.161Z,96.42
2023-01-10T00:42:26.177Z,96.42
2023-01-10T00:43:26.155Z,96.37
2023-01-10T00:44:26.128Z,96.48
2023-01-10T00:45:26.115Z,96.31
2023-01-10T00:46:26.167Z,96.27
2023-01-10T00:47:26.088Z,96.17
2023-01-10T00:48:26.102Z,95.86
2023-01-10T00:49:26.071Z,96.11
2023-01-10T00:50:26.046Z,96.11
2023-01-10T00:51:26.037Z,96.17
2023-01-10T00:52:26.022Z,95.86
2023-01-10T00:53:26.028Z,95.86
2023-01-10T00:54:26.016Z,95.86
2023-01-10T00:55:25.988Z,95.45
2023-01-10T00:56:25.967Z,95.34
2023-01-10T00:57:25.954Z,95.55
2023-01-10T00:58:25.981Z,95.65
2023-01-10T00:59:25.936Z,95.55
2023-01-10T01:00:25.916Z,95.70
2023-01-10T01:01:26.077Z,95.59
2023-01-10T01:02:26.004Z,95.34
2023-01-10T01:03:25.891Z,95.34
2023-01-10T01:04:25.871Z,95.24
2023-01-10T01:05:25.853Z,95.24
2023-01-10T01:06:25.845Z,95.34
2023-01-10T01:07:25.828Z,95.34
2023-01-10T01:08:25.832Z,95.24
2023-01-10T01:09:25.805Z,95.28
2023-01-10T01:10:25.798Z,95.18
2023-01-10T01:11:25.799Z,95.18
2023-01-10T01:12:25.771Z,95.24
2023-01-10T01:13:25.788Z,95.28
2023-01-10T01:14:25.767Z,95.14
2023-01-10T01:15:25.728Z,95.59
2023-01-10T01:16:25.714Z,95.65
2023-01-10T01:17:25.695Z,95.90
2023-01-10T01:18:25.701Z,96.11
2023-01-10T01:19:25.678Z,96.21
2023-01-10T01:20:25.664Z,96.31
2023-01-10T01:21:25.651Z,96.31
2023-01-10T01:22:25.637Z,96.21
2023-01-10T01:23:25.639Z,96.31
2023-01-10T01:24:25.609Z,96.11
2023-01-10T01:25:25.615Z,96.21
2023-01-10T01:26:25.598Z,96.21
2023-01-10T01:27:25.583Z,96.11
2023-01-10T01:28:25.580Z,95.90
2023-01-10T01:29:29.988Z,95.80
2023-01-10T01:30:26.563Z,95.80
2023-01-10T01:31:25.570Z,95.80
2023-01-10T01:32:25.516Z,95.80
2023-01-10T01:33:25.507Z,95.70
2023-01-10T01:34:25.482Z,95.49
2023-01-10T01:35:25.484Z,95.49
2023-01-10T01:36:25.455Z,95.70
2023-01-10T01:37:25.445Z,95.70
2023-01-10T01:38:25.455Z,95.80
2023-01-10T01:39:25.421Z,95.70
2023-01-10T01:40:25.421Z,95.59
2023-01-10T01:41:25.401Z,95.39
2023-01-10T01:42:25.378Z,95.49
2023-01-10T01:43:25.381Z,95.28
2023-01-10T01:44:25.359Z,95.07
2023-01-10T01:45:25.342Z,95.28
2023-01-10T01:46:25.420Z,95.07
2023-01-10T01:47:25.315Z,94.97
2023-01-10T01:48:25.317Z,95.07
2023-01-10T01:49:25.321Z,95.34
2023-01-10T01:50:25.281Z,95.18
2023-01-10T01:51:25.261Z,95.03
2023-01-10T01:52:25.250Z,94.77
2023-01-10T01:53:25.249Z,94.62
2023-01-10T01:54:25.230Z,94.31
2023-01-10T01:55:25.213Z,94.42
2023-01-10T01:56:25.197Z,94.31
2023-01-10T01:57:25.184Z,94.21
2023-01-10T01:58:25.211Z,94.21
2023-01-10T01:59:25.159Z,94.42
2023-01-10T02:00:25.150Z,94.52
2023-01-10T02:01:25.307Z,94.62
2023-01-10T02:02:25.194Z,94.82
2023-01-10T02:03:25.130Z,94.93
2023-01-10T02:04:25.110Z,95.03
2023-01-10T02:05:25.082Z,95.14
2023-01-10T02:06:25.125Z,94.93
2023-01-10T02:07:25.059Z,94.93
2023-01-10T02:08:25.044Z,95.03
2023-01-10T02:09:25.045Z,95.07
2023-01-10T02:10:25.019Z,95.03
2023-01-10T02:11:25.005Z,94.62
2023-01-10T02:12:24.991Z,94.72
2023-01-10T02:13:24.981Z,94.42
2023-01-10T02:14:24.981Z,94.31
2023-01-10T02:15:24.958Z,94.42
2023-01-10T02:16:24.951Z,94.31
2023-01-10T02:17:24.934Z,94.31
2023-01-10T02:18:24.935Z,94.31
2023-01-10T02:19:24.915Z,94.10
2023-01-10T02:20:24.887Z,93.90
2023-01-10T02:21:24.874Z,93.79
2023-01-10T02:22:24.861Z,94.00
2023-01-10T02:23:24.850Z,93.90
2023-01-10T02:24:24.860Z,93.79
2023-01-10T02:25:24.830Z,93.69
2023-01-10T02:26:24.810Z,93.90
2023-01-10T02:27:24.802Z,93.90
2023-01-10T02:28:24.790Z,94.00
2023-01-10T02:29:24.788Z,93.90
2023-01-10T02:30:24.764Z,94.00
2023-01-10T02:31:24.789Z,94.10
2023-01-10T02:32:40.691Z,94.10
2023-01-10T02:33:24.721Z,94.21
2023-01-10T02:34:24.749Z,94.25
2023-01-10T02:35:24.697Z,94.10
2023-01-10T02:36:24.679Z,94.21
2023-01-10T02:37:24.664Z,94.42
2023-01-10T02:38:24.656Z,94.42
2023-01-10T02:39:24.666Z,94.56
2023-01-10T02:40:24.631Z,94.77
2023-01-10T02:41:24.619Z,94.77
2023-01-10T02:42:24.605Z,94.87
2023-01-10T02:43:24.590Z,94.67
2023-01-10T02:44:24.598Z,94.77
2023-01-10T02:45:24.564Z,94.56
2023-01-10T02:46:24.608Z,94.67
2023-01-10T02:47:24.537Z,94.56
2023-01-10T02:48:24.531Z,94.56
2023-01-10T02:49:24.526Z,94.67
2023-01-10T02:50:24.523Z,94.46
2023-01-10T02:51:24.500Z,94.56
2023-01-10T02:52:24.491Z,94.56
2023-01-10T02:53:24.477Z,94.56
2023-01-10T02:54:24.463Z,94.56
2023-01-10T02:55:24.434Z,94.31
2023-01-10T02:56:24.428Z,94.42
2023-01-10T02:57:24.426Z,94.31
2023-01-10T02:58:24.400Z,94.21
2023-01-10T02:59:24.402Z,94.00
2023-01-10T03:00:24.379Z,94.00
2023-01-10T03:01:24.479Z,94.00
2023-01-10T03:02:24.346Z,94.10
2023-01-10T03:03:24.336Z,94.35
2023-01-10T03:04:24.376Z,94.35
2023-01-10T03:05:24.315Z,94.42
2023-01-10T03:06:24.317Z,94.31
2023-01-10T03:07:24.297Z,94.35
2023-01-10T03:08:24.269Z,94.56
2023-01-10T03:09:24.275Z,94.77
2023-01-10T03:10:24.241Z,94.67
2023-01-10T03:11:24.230Z,94.77
2023-01-10T03:12:24.220Z,94.87
2023-01-10T03:13:24.205Z,94.97
2023-01-10T03:14:24.216Z,95.07
2023-01-10T03:15:24.182Z,95.28
2023-01-10T03:16:24.186Z,95.18
2023-01-10T03:17:24.159Z,95.18
2023-01-10T03:18:24.136Z,95.28
2023-01-10T03:19:24.140Z,95.49
2023-01-10T03:20:24.121Z,95.49
2023-01-10T03:21:24.107Z,95.59
2023-01-10T03:22:24.104Z,95.70
2023-01-10T03:23:24.078Z,95.70
2023-01-10T03:24:24.081Z,95.80
2023-01-10T03:25:24.064Z,95.90
2023-01-10T03:26:24.035Z,96.01
2023-01-10T03:27:24.048Z,96.01
2023-01-10T03:28:24.016Z,96.01
2023-01-10T03:29:23.997Z,96.01
2023-01-10T03:30:24.000Z,96.01
2023-01-10T03:31:24.074Z,96.11
2023-01-10T03:32:23.959Z,96.11
2023-01-10T03:33:23.948Z,96.15
2023-01-10T03:34:23.934Z,96.15
2023-01-10T03:35:23.938Z,96.36
2023-01-10T03:36:23.908Z,96.26
2023-01-10T03:37:23.901Z,96.26
2023-01-10T03:38:23.906Z,96.36
2023-01-10T03:39:23.879Z,96.26
2023-01-10T03:40:23.874Z,96.36
2023-01-10T03:41:23.845Z,96.15
2023-01-10T03:42:23.829Z,96.05
2023-01-10T03:43:23.822Z,96.05
2023-01-10T03:44:23.809Z,95.95
2023-01-10T03:45:23.810Z,95.84
2023-01-10T03:46:23.804Z,95.74
2023-01-10T03:47:23.778Z,95.84
2023-01-10T03:48:23.767Z,95.84
2023-01-10T03:49:23.756Z,95.64
2023-01-10T03:50:23.753Z,95.74
2023-01-10T03:51:23.721Z,95.95
2023-01-10T03:52:23.701Z,95.84
2023-01-10T03:53:23.693Z,95.64
2023-01-10T03:54:23.695Z,95.64
2023-01-10T03:55:23.679Z,95.32
2023-01-10T03:56:23.649Z,95.43
2023-01-10T03:57:23.640Z,95.43
2023-01-10T03:58:23.625Z,95.22
2023-01-10T03:59:23.613Z,95.22
2023-01-10T04:00:23.618Z,95.22
2023-01-10T04:01:23.718Z,95.22
2023-01-10T04:02:23.574Z,95.02
2023-01-10T04:03:23.565Z,94.81
2023-01-10T04:04:23.603Z,94.81
2023-01-10T04:05:23.554Z,94.71
2023-01-10T04:06:23.522Z,94.81
2023-01-10T04:07:23.516Z,94.81
2023-01-10T04:08:23.499Z,94.92
2023-01-10T04:09:23.494Z,94.92
2023-01-10T04:10:25.220Z,95.12
2023-01-10T04:11:23.460Z,95.17
2023-01-10T04:12:23.448Z,95.17
2023-01-10T04:13:23.438Z,95.17
2023-01-10T04:14:23.430Z,95.17
2023-01-10T04:15:23.423Z,95.22
2023-01-10T04:16:23.423Z,95.27
2023-01-10T04:17:23.389Z,95.17
2023-01-10T04:18:23.366Z,95.06
2023-01-10T04:19:23.357Z,95.02
2023-01-10T04:20:23.355Z,95.06
2023-01-10T04:21:23.333Z,94.96
2023-01-10T04:22:23.322Z,94.85
2023-01-10T04:23:23.308Z,94.85
2023-01-10T04:24:23.288Z,94.96
2023-01-10T04:25:23.291Z,94.75
2023-01-10T04:26:23.290Z,94.54
2023-01-10T04:27:23.256Z,94.65
2023-01-10T04:28:24.583Z,94.44
2023-01-10T04:29:23.229Z,94.34
2023-01-10T04:30:23.232Z,94.34
2023-01-10T04:31:23.257Z,94.23
2023-01-10T04:32:23.196Z,94.23
2023-01-10T04:33:23.187Z,94.34
2023-01-10T04:34:23.167Z,94.03
2023-01-10T04:35:23.167Z,94.03
2023-01-10T04:36:23.136Z,93.62
2023-01-10T04:37:23.124Z,93.47
2023-01-10T04:38:23.107Z,93.62
2023-01-10T04:39:23.099Z,93.72
2023-01-10T04:40:23.103Z,93.82
2023-01-10T04:41:23.082Z,93.93
2023-01-10T04:42:23.079Z,93.93
2023-01-10T04:43:23.051Z,94.13
2023-01-10T04:44:23.035Z,94.03
2023-01-10T04:45:23.036Z,93.93
2023-01-10T04:46:23.007Z,93.93
2023-01-10T04:47:22.997Z,94.03
2023-01-10T04:48:22.973Z,94.13
2023-01-10T04:49:22.968Z,94.13
2023-01-10T04:50:22.969Z,94.18
2023-01-10T04:51:22.940Z,94.23
2023-01-10T04:52:22.930Z,94.34
2023-01-10T04:53:22.909Z,94.44
2023-01-10T04:54:22.896Z,94.59
2023-01-10T04:55:22.891Z,94.38
2023-01-10T04:56:22.886Z,94.59
2023-01-10T04:57:22.861Z,94.59
2023-01-10T04:58:22.865Z,94.34
2023-01-10T04:59:22.839Z,93.93
2023-01-10T05:00:22.819Z,93.82
2023-01-10T05:01:22.873Z,94.03
2023-01-10T05:02:22.931Z,93.72
2023-01-10T05:03:22.786Z,93.62
2023-01-10T05:04:22.777Z,93.62
2023-01-10T05:05:22.758Z,93.72
2023-01-10T05:06:22.776Z,93.51
2023-01-10T05:07:22.747Z,93.41
2023-01-10T05:08:22.725Z,93.51
2023-01-10T05:09:22.710Z,93.51
2023-01-10T05:10:22.693Z,93.62
2023-01-10T05:11:22.703Z,93.41
2023-01-10T05:12:22.677Z,93.41
2023-01-10T05:13:22.650Z,93.62
2023-01-10T05:14:22.667Z,93.62
2023-01-10T05:15:22.622Z,93.66
2023-01-10T05:16:22.675Z,93.51
2023-01-10T05:17:22.602Z,93.62
2023-01-10T05:18:22.593Z,93.51
2023-01-10T05:19:22.566Z,93.66
2023-01-10T05:20:22.560Z,93.66
2023-01-10T05:21:22.567Z,93.66
2023-01-10T05:22:22.551Z,93.72
2023-01-10T05:23:22.530Z,93.82
2023-01-10T05:24:22.514Z,93.51
2023-01-10T05:25:22.512Z,93.76
2023-01-10T05:26:22.494Z,93.51
2023-01-10T05:27:22.473Z,93.62
2023-01-10T05:28:22.482Z,93.55
2023-01-10T05:29:22.463Z,93.76
2023-01-10T05:30:22.528Z,93.41
2023-01-10T05:31:22.470Z,93.41
2023-01-10T05:32:22.397Z,93.51
2023-01-10T05:33:22.388Z,93.41
2023-01-10T05:34:22.377Z,93.51
2023-01-10T05:35:22.407Z,93.62
2023-01-10T05:36:22.365Z,93.72
2023-01-10T05:37:22.346Z,93.62
2023-01-10T05:38:22.343Z,93.51
2023-01-10T05:39:22.317Z,93.72
2023-01-10T05:40:22.325Z,93.82
2023-01-10T05:41:22.304Z,93.72
2023-01-10T05:42:22.272Z,93.93
2023-01-10T05:43:22.256Z,93.87
2023-01-10T05:44:22.264Z,93.87
2023-01-10T05:45:22.249Z,93.93
2023-01-10T05:46:22.265Z,93.93
2023-01-10T05:47:22.201Z,93.93
2023-01-10T05:48:22.192Z,94.07
2023-01-10T05:49:22.178Z,94.18
2023-01-10T05:50:22.159Z,94.18
2023-01-10T05:51:22.163Z,94.38
2023-01-10T05:52:22.148Z,94.48
2023-01-10T05:53:22.127Z,94.48
2023-01-10T05:54:22.108Z,94.38
2023-01-10T05:55:22.110Z,94.38
2023-01-10T05:56:22.164Z,94.59
2023-01-10T05:57:22.077Z,94.69
2023-01-10T05:58:22.062Z,94.59
2023-01-10T05:59:28.737Z,94.48
2023-01-10T06:00:25.023Z,94.48
2023-01-10T06:01:22.117Z,94.59
2023-01-10T06:02:22.142Z,94.69
2023-01-10T06:03:22.012Z,94.69
2023-01-10T06:04:21.988Z,94.69
2023-01-10T06:05:21.970Z,94.59
2023-01-10T06:06:21.970Z,94.69
2023-01-10T06:07:21.939Z,94.79
2023-01-10T06:08:21.932Z,94.79
2023-01-10T06:09:21.918Z,94.90
2023-01-10T06:10:21.905Z,94.79
2023-01-10T06:11:21.907Z,94.69
2023-01-10T06:12:21.886Z,94.69
2023-01-10T06:13:21.865Z,94.69
2023-01-10T06:14:21.847Z,94.48
2023-01-10T06:15:21.847Z,94.48
2023-01-10T06:16:21.861Z,94.38
2023-01-10T06:17:21.812Z,94.38
2023-01-10T06:18:21.826Z,94.48
2023-01-10T06:19:21.792Z,94.48
2023-01-10T06:20:21.769Z,94.54
2023-01-10T06:21:21.769Z,94.69
2023-01-10T06:22:21.763Z,94.90
2023-01-10T06:23:21.760Z,94.90
2023-01-10T06:24:21.717Z,95.00
2023-01-10T06:25:21.709Z,95.10
2023-01-10T06:26:21.696Z,95.21
2023-01-10T06:27:21.717Z,95.10
2023-01-10T06:28:21.674Z,95.10
2023-01-10T06:29:21.671Z,95.00
2023-01-10T06:30:21.673Z,95.00
2023-01-10T06:31:22.751Z,95.00
2023-01-10T06:32:22.492Z,95.10
2023-01-10T06:33:21.606Z,95.06
2023-01-10T06:34:21.620Z,95.06
2023-01-10T06:35:21.583Z,95.21
2023-01-10T06:36:21.583Z,95.10
2023-01-10T06:37:21.566Z,95.00
2023-01-10T06:38:21.538Z,95.06
2023-01-10T06:39:21.526Z,94.75
2023-01-10T06:40:21.517Z,94.75
2023-01-10T06:41:21.512Z,94.65
2023-01-10T06:42:21.519Z,94.65
2023-01-10T06:43:21.485Z,94.65
2023-01-10T06:44:21.485Z,94.75
2023-01-10T06:45:21.462Z,94.34
2023-01-10T06:46:21.529Z,94.23
2023-01-10T06:47:21.493Z,94.44
2023-01-10T06:48:21.414Z,94.54
2023-01-10T06:49:21.429Z,94.54
2023-01-10T06:50:21.421Z,94.54
2023-01-10T06:51:21.394Z,94.65
2023-01-10T06:52:21.404Z,94.34
2023-01-10T06:53:21.365Z,93.93
2023-01-10T06:54:21.367Z,94.03
2023-01-10T06:55:21.328Z,94.23
2023-01-10T06:56:21.311Z,94.13
2023-01-10T06:57:21.328Z,94.13
2023-01-10T06:58:21.294Z,94.13
2023-01-10T06:59:21.296Z,94.34
2023-01-10T07:00:21.293Z,94.23
2023-01-10T07:01:21.357Z,94.34
2023-01-10T07:02:21.334Z,94.23
2023-01-10T07:03:21.220Z,94.23
2023-01-10T07:04:21.201Z,94.23
2023-01-10T07:05:21.188Z,94.23
2023-01-10T07:06:21.195Z,94.38
2023-01-10T07:07:21.186Z,94.34
2023-01-10T07:08:21.153Z,94.34
2023-01-10T07:09:21.141Z,94.23
2023-01-10T07:10:21.128Z,94.23
2023-01-10T07:11:21.110Z,94.23
2023-01-10T07:12:21.111Z,94.03
2023-01-10T07:13:21.089Z,93.93
2023-01-10T07:14:21.076Z,94.13
2023-01-10T07:15:21.062Z,94.13
2023-01-10T07:16:21.099Z,94.23
2023-01-10T07:17:21.063Z,94.23
2023-01-10T07:18:21.032Z,94.13
2023-01-10T07:19:21.017Z,94.13
2023-01-10T07:20:21.007Z,94.03
2023-01-10T07:21:20.981Z,93.93
2023-01-10T07:22:21.010Z,94.13
2023-01-10T07:23:20.974Z,94.23
2023-01-10T07:24:20.946Z,94.13
2023-01-10T07:25:20.937Z,94.23
2023-01-10T07:26:20.921Z,94.44
2023-01-10T07:27:20.919Z,94.34
2023-01-10T07:28:20.899Z,94.13
2023-01-10T07:29:20.883Z,94.13
2023-01-10T07:30:20.892Z,94.13
2023-01-10T07:31:20.990Z,94.34
2023-01-10T07:32:20.844Z,94.44
2023-01-10T07:33:20.839Z,94.44
2023-01-10T07:34:20.811Z,94.44
2023-01-10T07:35:20.806Z,94.54
2023-01-10T07:36:20.791Z,94.18
2023-01-10T07:37:20.773Z,94.28
2023-01-10T07:38:20.799Z,94.38
2023-01-10T07:39:20.774Z,94.48
2023-01-10T07:40:20.746Z,94.44
2023-01-10T07:41:20.727Z,94.59
2023-01-10T07:42:20.714Z,94.69
2023-01-10T07:43:20.715Z,94.59
2023-01-10T07:44:20.687Z,94.59
2023-01-10T07:45:20.673Z,94.48
2023-01-10T07:46:20.684Z,94.54
2023-01-10T07:47:20.650Z,94.48
2023-01-10T07:48:20.661Z,94.13
2023-01-10T07:49:20.626Z,93.82
2023-01-10T07:50:20.616Z,93.87
2023-01-10T07:51:20.598Z,93.72
2023-01-10T07:52:20.596Z,93.82
2023-01-10T07:53:20.583Z,93.72
2023-01-10T07:54:20.585Z,93.72
2023-01-10T07:55:20.550Z,93.72
2023-01-10T07:56:20.546Z,93.51
2023-01-10T07:57:20.517Z,93.20
2023-01-10T07:58:20.528Z,93.41
2023-01-10T07:59:20.498Z,93.51
2023-01-10T08:00:20.494Z,93.41
2023-01-10T08:01:20.505Z,93.51
2023-01-10T08:02:20.527Z,93.30
2023-01-10T08:03:20.601Z,93.26
2023-01-10T08:04:20.430Z,92.85
2023-01-10T08:05:20.421Z,92.74
2023-01-10T08:06:20.403Z,92.74
2023-01-10T08:07:20.393Z,92.64
2023-01-10T08:08:20.397Z,92.13
2023-01-10T08:09:20.375Z,92.33
2023-01-10T08:10:20.375Z,92.33
2023-01-10T08:11:20.344Z,92.54
2023-01-10T08:12:20.330Z,92.54
2023-01-10T08:13:20.328Z,92.33
2023-01-10T08:14:20.398Z,92.33
2023-01-10T08:15:20.292Z,92.23
2023-01-10T08:16:20.332Z,91.77
2023-01-10T08:17:20.266Z,91.56
2023-01-10T08:18:20.269Z,91.16
2023-01-10T08:19:20.243Z,91.26
2023-01-10T08:20:20.226Z,91.26
2023-01-10T08:21:20.217Z,91.56
2023-01-10T08:22:20.209Z,91.82
2023-01-10T08:23:20.206Z,91.61
2023-01-10T08:24:20.178Z,91.92
2023-01-10T08:25:20.160Z,92.02
2023-01-10T08:26:20.191Z,92.13
2023-01-10T08:27:20.141Z,91.82
2023-01-10T08:28:20.139Z,91.82
2023-01-10T08:29:20.109Z,91.82
2023-01-10T08:30:20.103Z,91.92
2023-01-10T08:31:20.230Z,92.13
2023-01-10T08:32:20.077Z,91.92
2023-01-10T08:33:20.076Z,92.02
2023-01-10T08:34:20.049Z,91.61
2023-01-10T08:35:20.038Z,91.36
2023-01-10T08:36:20.021Z,90.04
2023-01-10T08:37:20.006Z,88.86
2023-01-10T08:38:20.009Z,88.59
2023-01-10T08:39:19.984Z,89.36
2023-01-10T08:40:19.973Z,89.92
2023-01-10T08:41:19.951Z,90.64
2023-01-10T08:42:19.973Z,91.16
2023-01-10T08:43:19.948Z,91.36
2023-01-10T08:44:19.931Z,91.82
2023-01-10T08:45:19.913Z,91.82
2023-01-10T08:46:19.913Z,91.71
2023-01-10T08:47:19.882Z,91.92
2023-01-10T08:48:19.895Z,92.13
2023-01-10T08:49:19.855Z,92.23
2023-01-10T08:50:19.848Z,92.44
2023-01-10T08:51:19.838Z,92.44
2023-01-10T08:52:19.824Z,92.13
2023-01-10T08:53:19.814Z,92.44
2023-01-10T08:54:19.792Z,92.44
2023-01-10T08:55:19.773Z,92.33
2023-01-10T08:56:19.764Z,92.33
2023-01-10T08:57:19.751Z,92.40
2023-01-10T08:58:19.773Z,92.50
2023-01-10T08:59:19.728Z,92.40
2023-01-10T09:00:19.716Z,92.08
2023-01-10T09:01:19.866Z,91.88
2023-01-10T09:02:19.812Z,91.88
2023-01-10T09:03:19.730Z,91.67
2023-01-10T09:04:19.692Z,91.67
2023-01-10T09:05:27.479Z,91.77
2023-01-10T09:06:20.643Z,91.67
2023-01-10T09:07:19.625Z,91.67
2023-01-10T09:08:19.608Z,91.88
2023-01-10T09:09:19.610Z,91.88
2023-01-10T09:10:19.584Z,91.67
2023-01-10T09:11:19.570Z,91.63
2023-01-10T09:12:19.560Z,91.63
2023-01-10T09:13:19.540Z,91.32
2023-01-10T09:14:19.564Z,91.11
2023-01-10T09:15:19.519Z,91.22
2023-01-10T09:16:19.582Z,91.42
2023-01-10T09:17:19.490Z,91.52
2023-01-10T09:18:21.270Z,91.22
2023-01-10T09:19:19.475Z,91.11
2023-01-10T09:20:19.460Z,91.11
2023-01-10T09:21:19.469Z,90.80
2023-01-10T09:22:19.432Z,90.80
2023-01-10T09:23:19.413Z,90.86
2023-01-10T09:24:19.423Z,90.70
2023-01-10T09:25:19.383Z,90.80
2023-01-10T09:26:19.379Z,90.76
2023-01-10T09:27:19.365Z,90.45
2023-01-10T09:28:19.355Z,90.35
2023-01-10T09:29:19.348Z,90.25
2023-01-10T09:30:19.348Z,90.25
2023-01-10T09:31:19.363Z,90.35
2023-01-10T09:32:19.296Z,90.35
2023-01-10T09:33:19.284Z,90.25
2023-01-10T09:34:19.285Z,90.25
2023-01-10T09:35:19.257Z,90.45
2023-01-10T09:36:19.253Z,90.35
2023-01-10T09:37:19.230Z,89.94
2023-01-10T09:38:19.222Z,90.00
2023-01-10T09:39:19.220Z,89.89
2023-01-10T09:40:19.212Z,89.42
2023-01-10T09:41:19.178Z,89.83
2023-01-10T09:42:19.172Z,89.83
2023-01-10T09:43:19.159Z,90.10
2023-01-10T09:44:19.167Z,89.89
2023-01-10T09:45:19.128Z,89.48
2023-01-10T09:46:19.298Z,89.17
2023-01-10T09:47:22.806Z,88.96
2023-01-10T09:48:19.097Z,88.65
2023-01-10T09:49:19.091Z,88.65
2023-01-10T09:50:19.167Z,88.76
2023-01-10T09:51:19.043Z,88.82
2023-01-10T09:52:19.042Z,88.62
2023-01-10T09:53:19.023Z,88.31
2023-01-10T09:54:19.026Z,87.90
2023-01-10T09:55:18.993Z,87.48
2023-01-10T09:56:18.983Z,87.48
2023-01-10T09:57:19.007Z,87.27
2023-01-10T09:58:18.955Z,87.07
2023-01-10T09:59:18.960Z,86.55
2023-01-10T10:00:18.970Z,86.04
2023-01-10T10:01:18.951Z,86.35
2023-01-10T10:02:18.931Z,86.00
2023-01-10T10:03:19.026Z,85.73
2023-01-10T10:04:19.011Z,85.59
2023-01-10T10:05:18.876Z,86.00
2023-01-10T10:06:18.860Z,85.24
2023-01-10T10:07:18.851Z,84.72
2023-01-10T10:08:18.828Z,84.52
2023-01-10T10:09:18.827Z,84.52
2023-01-10T10:10:18.831Z,84.17
2023-01-10T10:11:18.783Z,84.07
2023-01-10T10:12:18.775Z,83.31
2023-01-10T10:13:26.796Z,82.65
2023-01-10T10:14:18.765Z,81.67
2023-01-10T10:15:18.736Z,80.28
2023-01-10T10:16:18.755Z,77.88
2023-01-10T10:17:18.723Z,78.16
2023-01-10T10:18:18.734Z,79.05
2023-01-10T10:19:18.707Z,76.37
2023-01-10T10:20:18.679Z,74.02
2023-01-10T10:21:18.659Z,74.19
2023-01-10T10:22:19.955Z,73.91
2023-01-10T10:23:18.637Z,72.55
2023-01-10T10:24:18.630Z,71.22
2023-01-10T10:25:18.618Z,72.92
2023-01-10T10:26:18.597Z,74.57
2023-01-10T10:27:18.577Z,76.10
2023-01-10T10:28:18.569Z,75.59
2023-01-10T10:29:18.566Z,74.32
2023-01-10T10:30:18.539Z,75.42
2023-01-10T10:31:18.567Z,76.31
2023-01-10T10:32:18.526Z,77.34
2023-01-10T10:33:18.501Z,74.87
2023-01-10T10:34:18.505Z,72.34
2023-01-10T10:35:18.503Z,71.01
2023-01-10T10:36:18.462Z,70.91
2023-01-10T10:37:18.444Z,69.86
2023-01-10T10:38:18.435Z,69.04
2023-01-10T10:39:18.419Z,68.43
2023-01-10T10:40:18.447Z,68.87
2023-01-10T10:41:18.391Z,68.40
2023-01-10T10:42:18.382Z,66.19
2023-01-10T10:43:18.382Z,66.27
2023-01-10T10:44:18.367Z,66.21
2023-01-10T10:45:18.360Z,68.29
2023-01-10T10:46:18.351Z,69.96
2023-01-10T10:47:18.317Z,67.88
2023-01-10T10:48:18.309Z,69.38
2023-01-10T10:49:18.833Z,68.73
2023-01-10T10:50:18.311Z,68.70
2023-01-10T10:51:18.267Z,67.51
2023-01-10T10:52:18.248Z,67.37
2023-01-10T10:53:18.233Z,67.24
2023-01-10T10:54:18.237Z,68.35
2023-01-10T10:55:18.224Z,69.78
2023-01-10T10:56:18.197Z,70.67
2023-01-10T10:57:18.180Z,68.73
2023-01-10T10:58:18.185Z,68.57
2023-01-10T10:59:18.160Z,66.80
2023-01-10T11:00:18.169Z,66.02
2023-01-10T11:01:18.210Z,65.74
2023-01-10T11:02:18.117Z,65.98
2023-01-10T11:03:18.122Z,65.54
2023-01-10T11:04:18.093Z,66.96
2023-01-10T11:05:18.110Z,68.21
2023-01-10T11:06:18.083Z,70.02
2023-01-10T11:07:18.058Z,72.34
2023-01-10T11:08:18.048Z,71.73
2023-01-10T11:09:18.028Z,70.43
2023-01-10T11:10:18.029Z,70.29
2023-01-10T11:11:18.001Z,68.60
2023-01-10T11:12:17.989Z,69.41
2023-01-10T11:13:17.983Z,71.80
2023-01-10T11:14:17.962Z,73.64
2023-01-10T11:15:17.960Z,73.06
2023-01-10T11:16:17.952Z,74.43
2023-01-10T11:17:17.919Z,75.04
2023-01-10T11:18:17.918Z,75.45
2023-01-10T11:19:17.942Z,74.67
2023-01-10T11:20:17.894Z,75.21
2023-01-10T11:21:19.660Z,74.94
2023-01-10T11:22:17.906Z,74.50
2023-01-10T11:23:17.845Z,76.18
2023-01-10T11:24:17.825Z,76.38
2023-01-10T11:25:17.828Z,76.59
2023-01-10T11:26:17.814Z,76.90
2023-01-10T11:27:17.792Z,76.79
2023-01-10T11:28:17.782Z,76.28
2023-01-10T11:29:17.796Z,76.31
2023-01-10T11:30:17.773Z,77.24
2023-01-10T11:31:17.807Z,77.96
2023-01-10T11:32:17.730Z,77.62
2023-01-10T11:33:17.722Z,77.10
2023-01-10T11:34:17.697Z,76.59
2023-01-10T11:35:17.770Z,75.87
2023-01-10T11:36:17.679Z,75.93
2023-01-10T11:37:17.659Z,76.04
2023-01-10T11:38:17.666Z,75.93
2023-01-10T11:39:17.636Z,75.59
2023-01-10T11:40:17.629Z,73.57
2023-01-10T11:41:17.625Z,70.94
2023-01-10T11:42:17.594Z,70.03
2023-01-10T11:43:17.586Z,70.91
2023-01-10T11:44:17.576Z,73.95
2023-01-10T11:45:17.563Z,73.74
2023-01-10T11:46:17.633Z,73.95
2023-01-10T11:47:17.537Z,71.73
2023-01-10T11:48:18.589Z,72.65
2023-01-10T11:49:17.514Z,74.63
2023-01-10T11:50:17.492Z,74.94
2023-01-10T11:51:17.493Z,75.25
2023-01-10T11:52:17.467Z,75.35
2023-01-10T11:53:17.452Z,75.87
2023-01-10T11:54:17.474Z,76.07
2023-01-10T11:55:17.426Z,75.45
2023-01-10T11:56:17.432Z,75.93
2023-01-10T11:57:17.401Z,76.55
2023-01-10T11:58:17.394Z,76.62
2023-01-10T11:59:17.382Z,75.66
2023-01-10T12:00:17.356Z,75.21
2023-01-10T12:01:17.396Z,74.77
2023-01-10T12:02:17.434Z,73.85
2023-01-10T12:03:17.322Z,74.05
2023-01-10T12:04:17.310Z,74.91
2023-01-10T12:05:17.406Z,73.23
2023-01-10T12:06:17.330Z,71.80
2023-01-10T12:07:17.275Z,73.68
2023-01-10T12:08:17.263Z,75.21
2023-01-10T12:09:17.248Z,74.70
2023-01-10T12:10:17.257Z,75.25
2023-01-10T12:11:17.243Z,74.46
2023-01-10T12:12:17.203Z,73.47
2023-01-10T12:13:17.201Z,75.35
2023-01-10T12:14:17.179Z,75.66
2023-01-10T12:15:17.165Z,75.90
2023-01-10T12:16:17.239Z,77.17
2023-01-10T12:17:17.149Z,77.48
2023-01-10T12:18:17.127Z,77.68
2023-01-10T12:19:17.116Z,77.89
2023-01-10T12:20:17.110Z,77.95
2023-01-10T12:21:17.097Z,77.55
2023-01-10T12:22:17.095Z,77.06
2023-01-10T12:23:17.069Z,77.82
2023-01-10T12:24:17.050Z,78.13
2023-01-10T12:25:17.117Z,78.40
2023-01-10T12:26:17.043Z,78.50
2023-01-10T12:27:17.025Z,77.40
2023-01-10T12:28:16.999Z,76.38
2023-01-10T12:29:16.987Z,75.76
2023-01-10T12:30:16.995Z,76.72
2023-01-10T12:31:16.962Z,77.48
2023-01-10T12:32:16.974Z,77.99
2023-01-10T12:33:16.957Z,77.99
2023-01-10T12:34:16.933Z,77.92
2023-01-10T12:35:16.970Z,78.23
2023-01-10T12:36:16.896Z,78.54
2023-01-10T12:37:16.898Z,78.64
2023-01-10T12:38:16.875Z,78.44
2023-01-10T12:39:16.855Z,78.37
2023-01-10T12:40:16.839Z,78.47
2023-01-10T12:41:16.833Z,78.47
2023-01-10T12:42:16.849Z,78.99
2023-01-10T12:43:16.807Z,79.61
2023-01-10T12:44:16.825Z,78.96
2023-01-10T12:45:16.813Z,79.26
2023-01-10T12:46:33.655Z,78.96
2023-01-10T12:47:17.821Z,78.13
2023-01-10T12:48:16.737Z,78.17
2023-01-10T12:49:16.723Z,78.68
2023-01-10T12:50:16.706Z,78.89
2023-01-10T12:51:16.698Z,79.09
2023-01-10T12:52:16.697Z,78.58